createdAt,value
2023-02-18T00:00:28.078Z,6.40
2023-02-18T00:02:54.619Z,5.60
2023-02-18T00:05:22.286Z,4.70
2023-02-18T00:07:49.057Z,4.50
2023-02-18T00:10:16.281Z,8.10
2023-02-18T00:12:43.380Z,7.10
2023-02-18T00:15:10.290Z,6.00
2023-02-18T00:17:37.244Z,5.20
2023-02-18T00:20:06.186Z,4.80
2023-02-18T00:22:33.293Z,4.40
2023-02-18T00:24:59.821Z,5.60
2023-02-18T00:27:26.370Z,4.10
2023-02-18T00:29:53.105Z,4.20
2023-02-18T00:32:19.592Z,4.10
2023-02-18T00:34:46.058Z,4.50
2023-02-18T00:37:13.765Z,3.60
2023-02-18T00:39:40.395Z,4.10
2023-02-18T00:42:07.250Z,3.40
2023-02-18T00:44:33.773Z,2.80
2023-02-18T00:47:00.312Z,3.30
2023-02-18T00:49:26.858Z,3.30
2023-02-18T00:51:53.325Z,3.60
2023-02-18T00:54:19.897Z,4.50
2023-02-18T00:56:46.828Z,3.10
2023-02-18T00:59:13.274Z,4.10
2023-02-18T01:01:40.016Z,2.90
2023-02-18T01:04:06.609Z,3.30
2023-02-18T01:06:33.259Z,2.30
2023-02-18T01:08:59.810Z,2.40
2023-02-18T01:11:26.596Z,3.50
2023-02-18T01:13:53.415Z,3.10
2023-02-18T01:16:20.506Z,3.50
2023-02-18T01:18:47.533Z,3.20
2023-02-18T01:21:14.169Z,3.60
2023-02-18T01:23:41.709Z,3.90
2023-02-18T01:26:09.657Z,3.40
2023-02-18T01:28:36.938Z,3.60
2023-02-18T01:31:11.534Z,2.90
2023-02-18T01:33:38.999Z,3.20
2023-02-18T01:36:07.397Z,3.20
2023-02-18T01:38:34.470Z,3.10
2023-02-18T01:41:01.014Z,2.80
2023-02-18T01:43:27.763Z,2.50
2023-02-18T01:45:57.608Z,2.60
2023-02-18T01:48:34.342Z,3.00
2023-02-18T01:51:27.543Z,2.50
2023-02-18T01:54:06.308Z,3.00
2023-02-18T01:56:39.681Z,3.10
2023-02-18T01:59:11.584Z,3.20
2023-02-18T02:01:41.933Z,2.30
2023-02-18T02:04:08.493Z,2.30
2023-02-18T02:06:35.192Z,2.70
2023-02-18T02:09:06.922Z,2.80
2023-02-18T02:11:45.841Z,3.10
2023-02-18T02:14:50.779Z,2.60
2023-02-18T02:17:28.400Z,3.70
2023-02-18T02:20:36.153Z,2.90
2023-02-18T02:23:08.642Z,2.90
2023-02-18T02:25:50.596Z,3.10
2023-02-18T02:29:22.352Z,3.60
2023-02-18T02:32:05.805Z,4.10
2023-02-18T02:34:51.456Z,3.70
2023-02-18T02:37:20.796Z,4.70
2023-02-18T02:40:09.552Z,7.10
2023-02-18T02:43:20.665Z,5.30
2023-02-18T02:46:07.295Z,6.30
2023-02-18T02:48:49.240Z,5.20
2023-02-18T02:51:28.384Z,4.30
2023-02-18T02:53:55.030Z,4.50
2023-02-18T02:56:24.647Z,4.50
2023-02-18T02:59:04.442Z,6.10
2023-02-18T03:01:47.943Z,4.50
2023-02-18T03:04:42.129Z,4.40
2023-02-18T03:07:21.334Z,6.00
2023-02-18T03:10:26.954Z,5.50
2023-02-18T03:13:15.206Z,7.40
2023-02-18T03:15:59.945Z,5.30
2023-02-18T03:18:41.327Z,4.40
2023-02-18T03:21:13.912Z,5.40
2023-02-18T03:24:32.901Z,4.20
2023-02-18T03:27:05.563Z,3.70
2023-02-18T03:29:33.641Z,4.30
2023-02-18T03:32:05.643Z,2.90
2023-02-18T03:34:39.538Z,3.60
2023-02-18T03:37:07.446Z,4.90
2023-02-18T03:39:36.003Z,5.00
2023-02-18T03:42:02.550Z,3.60
2023-02-18T03:44:31.256Z,4.80
2023-02-18T03:46:58.084Z,4.60
2023-02-18T03:49:24.639Z,4.20
2023-02-18T03:51:51.148Z,3.00
2023-02-18T03:54:17.601Z,4.30
2023-02-18T03:56:44.361Z,3.00
2023-02-18T03:59:12.115Z,4.10
2023-02-18T04:01:39.052Z,2.70
2023-02-18T04:04:06.169Z,2.90
2023-02-18T04:06:32.776Z,3.30
2023-02-18T04:08:59.229Z,3.40
2023-02-18T04:11:25.950Z,4.70
2023-02-18T04:13:52.435Z,4.00
2023-02-18T04:16:22.644Z,3.80
2023-02-18T04:18:49.171Z,3.70
2023-02-18T04:21:15.866Z,2.70
2023-02-18T04:23:42.348Z,3.60
2023-02-18T04:26:09.169Z,3.50
2023-02-18T04:28:36.044Z,2.90
2023-02-18T04:31:02.664Z,3.00
2023-02-18T04:33:29.754Z,2.20
2023-02-18T04:35:56.384Z,3.40
2023-02-18T04:38:23.426Z,4.90
2023-02-18T04:40:49.986Z,3.50
2023-02-18T04:43:16.833Z,4.10
2023-02-18T04:45:43.378Z,4.00
2023-02-18T04:48:10.121Z,4.40
2023-02-18T04:50:36.878Z,7.00
2023-02-18T04:53:03.448Z,7.50
2023-02-18T04:55:29.958Z,5.70
2023-02-18T04:57:56.801Z,8.10
2023-02-18T05:00:23.438Z,6.50
2023-02-18T05:02:50.118Z,5.80
2023-02-18T05:05:16.680Z,4.60
2023-02-18T05:07:43.496Z,4.50
2023-02-18T05:10:14.530Z,4.30
2023-02-18T05:12:41.322Z,4.00
2023-02-18T05:15:08.864Z,3.60
2023-02-18T05:17:35.583Z,3.60
2023-02-18T05:20:02.133Z,5.80
2023-02-18T05:22:28.562Z,8.70
2023-02-18T05:24:55.213Z,7.70
2023-02-18T05:27:21.815Z,5.60
2023-02-18T05:29:49.075Z,5.40
2023-02-18T05:32:15.538Z,4.30
2023-02-18T05:34:42.294Z,7.40
2023-02-18T05:37:09.367Z,6.50
2023-02-18T05:39:36.412Z,4.20
2023-02-18T05:42:03.460Z,3.90
2023-02-18T05:44:30.213Z,5.40
2023-02-18T05:47:02.293Z,4.50
2023-02-18T05:49:30.301Z,4.90
2023-02-18T05:51:57.492Z,6.70
2023-02-18T05:54:24.171Z,6.20
2023-02-18T05:56:51.816Z,9.80
2023-02-18T05:59:18.980Z,4.60
2023-02-18T06:01:46.769Z,6.20
2023-02-18T06:04:13.901Z,7.30
2023-02-18T06:06:40.930Z,8.70
2023-02-18T06:09:08.519Z,5.80
2023-02-18T06:11:35.825Z,4.30
2023-02-18T06:14:03.161Z,4.60
2023-02-18T06:16:30.211Z,4.30
2023-02-18T06:18:56.864Z,4.20
2023-02-18T06:21:23.491Z,3.50
2023-02-18T06:23:50.431Z,4.20
2023-02-18T06:26:16.931Z,4.40
2023-02-18T06:28:43.510Z,4.60
2023-02-18T06:31:10.124Z,6.20
2023-02-18T06:33:36.794Z,6.20
2023-02-18T06:36:09.084Z,5.70
2023-02-18T06:38:36.121Z,4.40
2023-02-18T06:41:03.561Z,5.10
2023-02-18T06:43:30.536Z,5.70
2023-02-18T06:45:57.282Z,4.70
2023-02-18T06:48:24.072Z,3.00
2023-02-18T06:50:51.067Z,4.50
2023-02-18T06:53:17.589Z,6.10
2023-02-18T06:55:44.886Z,4.50
2023-02-18T06:58:12.793Z,5.20
2023-02-18T07:00:39.618Z,7.20
2023-02-18T07:03:07.371Z,7.90
2023-02-18T07:05:34.731Z,7.10
2023-02-18T07:08:01.701Z,4.00
2023-02-18T07:10:28.510Z,5.20
2023-02-18T07:12:55.068Z,4.10
2023-02-18T07:15:21.611Z,3.90
2023-02-18T07:17:48.459Z,4.80
2023-02-18T07:20:14.910Z,2.70
2023-02-18T07:22:41.641Z,3.90
2023-02-18T07:25:08.525Z,3.40
2023-02-18T07:27:35.134Z,3.00
2023-02-18T07:30:01.726Z,2.70
2023-02-18T07:32:28.190Z,3.50
2023-02-18T07:34:54.774Z,5.20
2023-02-18T07:37:21.411Z,3.10
2023-02-18T07:39:47.850Z,4.80
2023-02-18T07:42:14.902Z,5.10
2023-02-18T07:44:42.326Z,3.90
2023-02-18T07:47:12.783Z,4.10
2023-02-18T07:49:39.660Z,9.40
2023-02-18T07:52:06.103Z,4.80
2023-02-18T07:54:32.964Z,4.60
2023-02-18T07:56:59.579Z,5.00
2023-02-18T07:59:26.115Z,5.80
2023-02-18T08:01:52.679Z,5.60
2023-02-18T08:04:19.201Z,4.40
2023-02-18T08:06:49.047Z,3.10
2023-02-18T08:09:16.939Z,4.70
2023-02-18T08:11:43.839Z,7.10
2023-02-18T08:14:10.397Z,5.30
2023-02-18T08:16:37.303Z,4.60
2023-02-18T08:19:04.483Z,5.70
2023-02-18T08:21:31.552Z,7.70
2023-02-18T08:23:59.545Z,4.90
2023-02-18T08:26:26.272Z,5.20
2023-02-18T08:28:52.838Z,3.40
2023-02-18T08:31:29.067Z,5.00
2023-02-18T08:33:56.843Z,3.90
2023-02-18T08:36:23.720Z,3.20
2023-02-18T08:38:50.654Z,4.30
2023-02-18T08:41:17.585Z,5.10
2023-02-18T08:43:45.071Z,4.00
2023-02-18T08:46:15.970Z,4.40
2023-02-18T08:48:44.553Z,6.40
2023-02-18T08:51:13.719Z,2.70
2023-02-18T08:53:40.614Z,3.40
2023-02-18T08:56:09.595Z,3.90
2023-02-18T08:58:37.536Z,3.30
2023-02-18T09:01:10.304Z,3.90
2023-02-18T09:03:37.369Z,4.00
2023-02-18T09:06:04.762Z,3.20
2023-02-18T09:08:31.378Z,5.90
2023-02-18T09:10:59.820Z,5.50
2023-02-18T09:13:26.928Z,6.50
2023-02-18T09:16:02.047Z,5.70
2023-02-18T09:18:29.006Z,4.60
2023-02-18T09:20:57.530Z,3.00
2023-02-18T09:23:30.189Z,5.40
2023-02-18T09:25:57.074Z,6.30
2023-02-18T09:28:24.105Z,7.20
2023-02-18T09:30:51.246Z,5.20
2023-02-18T09:33:18.894Z,5.00
2023-02-18T09:35:46.761Z,7.00
2023-02-18T09:38:16.262Z,5.50
2023-02-18T09:40:48.613Z,5.90
2023-02-18T09:43:33.949Z,5.50
2023-02-18T09:46:02.168Z,4.50
2023-02-18T09:48:32.900Z,3.70
2023-02-18T09:51:00.160Z,6.60
2023-02-18T09:53:27.119Z,4.60
2023-02-18T09:55:56.622Z,2.50
2023-02-18T09:58:30.628Z,5.80
2023-02-18T10:01:15.467Z,7.40
2023-02-18T10:03:42.380Z,6.70
2023-02-18T10:06:26.257Z,10.90
2023-02-18T10:08:55.148Z,6.50
2023-02-18T10:11:42.958Z,6.30
2023-02-18T10:14:12.483Z,7.30
2023-02-18T10:16:40.335Z,6.10
2023-02-18T10:19:38.148Z,7.40
2023-02-18T10:22:08.171Z,5.20
2023-02-18T10:24:43.217Z,7.90
2023-02-18T10:27:15.061Z,4.50
2023-02-18T10:29:41.734Z,4.50
2023-02-18T10:32:24.007Z,5.80
2023-02-18T10:35:15.824Z,5.80
2023-02-18T10:37:42.272Z,4.00
2023-02-18T10:40:33.736Z,4.00
2023-02-18T10:45:57.672Z,4.60
2023-02-18T10:51:16.897Z,5.00
2023-02-18T10:53:46.716Z,7.00
2023-02-18T10:56:34.535Z,5.20
2023-02-18T10:59:22.650Z,3.00
2023-02-18T11:02:17.530Z,4.80
2023-02-18T11:04:46.330Z,4.10
2023-02-18T11:07:16.678Z,4.30
2023-02-18T11:09:49.952Z,5.70
2023-02-18T11:12:29.142Z,7.80
2023-02-18T11:15:19.687Z,6.60
2023-02-18T11:17:49.113Z,5.90
2023-02-18T11:20:24.430Z,7.10
2023-02-18T11:22:51.394Z,8.70
2023-02-18T11:25:24.952Z,7.60
2023-02-18T11:27:56.496Z,4.90
2023-02-18T11:30:32.458Z,6.70
2023-02-18T11:33:03.406Z,5.80
2023-02-18T11:35:32.162Z,4.50
2023-02-18T11:38:01.046Z,4.50
2023-02-18T11:40:34.405Z,6.10
2023-02-18T11:43:17.756Z,6.30
2023-02-18T11:45:44.770Z,3.60
2023-02-18T11:48:17.835Z,5.00
2023-02-18T11:50:49.885Z,3.70
2023-02-18T11:53:26.734Z,8.10
2023-02-18T11:55:56.360Z,8.90
2023-02-18T11:58:23.079Z,10.60
2023-02-18T12:00:51.111Z,8.30
2023-02-18T12:03:52.097Z,5.80
2023-02-18T12:06:24.907Z,3.90
2023-02-18T12:08:58.186Z,4.60
2023-02-18T12:11:33.147Z,6.00
2023-02-18T12:14:00.254Z,4.90
2023-02-18T12:16:46.022Z,5.80
2023-02-18T12:19:44.095Z,7.70
2023-02-18T12:22:26.905Z,6.50
2023-02-18T12:25:03.729Z,5.10
2023-02-18T12:27:42.460Z,5.00
2023-02-18T12:30:46.413Z,6.50
2023-02-18T12:33:29.422Z,9.20
2023-02-18T12:36:17.347Z,10.90
2023-02-18T12:38:54.521Z,9.10
2023-02-18T12:41:47.121Z,6.20
2023-02-18T12:44:45.384Z,6.00
2023-02-18T12:47:42.460Z,7.20
2023-02-18T12:50:33.324Z,10.40
2023-02-18T12:53:38.973Z,9.50
2023-02-18T12:56:26.831Z,7.70
2023-02-18T12:59:18.110Z,12.80
2023-02-18T13:01:59.902Z,9.70
2023-02-18T13:04:42.024Z,10.80
2023-02-18T13:07:33.735Z,8.50
2023-02-18T13:10:34.589Z,11.80
2023-02-18T13:13:12.025Z,10.60
2023-02-18T13:15:50.216Z,9.50
2023-02-18T13:18:37.398Z,8.30
2023-02-18T13:21:07.606Z,14.10
2023-02-18T13:24:06.366Z,9.10
2023-02-18T13:26:34.631Z,10.40
2023-02-18T13:29:27.679Z,12.50
2023-02-18T13:32:12.782Z,13.00
2023-02-18T13:34:56.908Z,9.50
2023-02-18T13:37:51.112Z,9.60
2023-02-18T13:40:21.728Z,6.50
2023-02-18T13:42:52.948Z,7.30
2023-02-18T13:47:51.508Z,11.60
2023-02-18T13:50:24.482Z,9.40
2023-02-18T13:53:11.205Z,8.80
2023-02-18T13:55:57.965Z,8.10
2023-02-18T13:58:31.531Z,10.30
2023-02-18T14:01:06.106Z,8.30
2023-02-18T14:03:32.670Z,9.20
2023-02-18T14:05:59.844Z,10.30
2023-02-18T14:08:33.755Z,13.00
2023-02-18T14:11:12.216Z,10.80
2023-02-18T14:13:43.222Z,10.00
2023-02-18T14:16:11.360Z,10.00
2023-02-18T14:18:40.937Z,13.00
2023-02-18T14:21:13.194Z,14.50
2023-02-18T14:23:39.715Z,10.30
2023-02-18T14:26:21.852Z,8.30
2023-02-18T14:28:48.470Z,11.00
2023-02-18T14:31:15.234Z,12.00
2023-02-18T14:33:59.689Z,10.50
2023-02-18T14:36:48.197Z,9.00
2023-02-18T14:39:30.213Z,11.90
2023-02-18T14:42:18.496Z,7.50
2023-02-18T14:45:17.237Z,6.90
2023-02-18T14:47:49.888Z,9.00
2023-02-18T14:50:19.825Z,6.20
2023-02-18T14:53:05.392Z,9.30
2023-02-18T14:55:39.256Z,9.70
2023-02-18T14:58:32.263Z,8.30
2023-02-18T15:01:06.372Z,7.50
2023-02-18T15:03:33.640Z,8.90
2023-02-18T15:06:00.286Z,6.30
2023-02-18T15:08:27.033Z,7.20
2023-02-18T15:10:58.841Z,8.70
2023-02-18T15:13:27.897Z,8.00
2023-02-18T15:16:02.645Z,8.70
2023-02-18T15:18:36.849Z,7.30
2023-02-18T15:21:09.606Z,8.70
2023-02-18T15:23:40.261Z,9.50
2023-02-18T15:26:08.016Z,8.90
2023-02-18T15:28:43.389Z,13.00
2023-02-18T15:31:14.956Z,8.00
2023-02-18T15:33:48.163Z,8.80
2023-02-18T15:36:15.073Z,7.50
2023-02-18T15:38:41.724Z,7.90
2023-02-18T15:41:14.106Z,7.60
2023-02-18T15:44:11.732Z,7.00
2023-02-18T15:46:39.870Z,7.90
2023-02-18T15:49:08.234Z,6.70
2023-02-18T15:51:35.099Z,7.90
2023-02-18T15:54:03.474Z,8.70
2023-02-18T15:56:37.738Z,10.40
2023-02-18T15:59:33.316Z,10.40
2023-02-18T16:02:08.751Z,11.90
2023-02-18T16:04:41.013Z,19.30
2023-02-18T16:07:30.147Z,24.40
2023-02-18T16:10:15.628Z,19.90
2023-02-18T16:12:51.178Z,20.80
2023-02-18T16:15:27.605Z,17.00
2023-02-18T16:17:54.515Z,13.90
2023-02-18T16:20:36.579Z,16.70
2023-02-18T16:23:11.395Z,13.30
2023-02-18T16:25:47.109Z,14.60
2023-02-18T16:28:27.298Z,13.60
2023-02-18T16:30:54.214Z,11.60
2023-02-18T16:33:20.707Z,13.10
2023-02-18T16:35:50.294Z,17.40
2023-02-18T16:38:20.733Z,20.60
2023-02-18T16:40:48.091Z,14.20
2023-02-18T16:43:17.678Z,12.80
2023-02-18T16:45:50.508Z,11.60
2023-02-18T16:48:24.343Z,14.40
2023-02-18T16:50:51.412Z,14.40
2023-02-18T16:53:18.322Z,15.40
2023-02-18T16:55:44.723Z,13.40
2023-02-18T16:58:11.612Z,16.20
2023-02-18T17:00:39.647Z,13.20
2023-02-18T17:03:06.433Z,10.00
2023-02-18T17:05:34.835Z,24.20
2023-02-18T17:08:18.253Z,17.70
2023-02-18T17:10:47.775Z,15.40
2023-02-18T17:13:17.213Z,14.80
2023-02-18T17:15:47.544Z,10.90
2023-02-18T17:18:14.756Z,8.80
2023-02-18T17:20:41.398Z,10.10
2023-02-18T17:23:08.176Z,9.20
2023-02-18T17:25:38.420Z,12.80
2023-02-18T17:28:05.740Z,16.20
2023-02-18T17:30:36.416Z,16.90
2023-02-18T17:33:06.242Z,11.90
2023-02-18T17:35:33.366Z,10.60
2023-02-18T17:37:59.981Z,12.10
2023-02-18T17:40:28.410Z,10.50
2023-02-18T17:42:55.804Z,9.90
2023-02-18T17:45:33.357Z,9.70
2023-02-18T17:48:01.605Z,11.50
2023-02-18T17:50:30.271Z,18.00
2023-02-18T17:52:57.034Z,25.50
2023-02-18T17:55:23.987Z,21.80
2023-02-18T17:57:51.953Z,23.20
2023-02-18T18:00:22.155Z,21.70
2023-02-18T18:02:48.714Z,17.10
2023-02-18T18:05:30.234Z,13.60
2023-02-18T18:07:56.759Z,16.80
2023-02-18T18:10:25.161Z,13.10
2023-02-18T18:12:51.785Z,16.30
2023-02-18T18:15:31.935Z,19.70
2023-02-18T18:17:58.986Z,14.50
2023-02-18T18:20:27.040Z,11.80
2023-02-18T18:22:56.157Z,9.80
2023-02-18T18:25:45.235Z,6.20
2023-02-18T18:28:12.289Z,7.00
2023-02-18T18:30:42.073Z,12.20
2023-02-18T18:33:24.067Z,13.50
2023-02-18T18:35:52.846Z,12.50
2023-02-18T18:38:20.869Z,12.20
2023-02-18T18:40:48.451Z,10.70
2023-02-18T18:43:19.902Z,8.70
2023-02-18T18:45:47.509Z,9.80
2023-02-18T18:48:15.129Z,11.10
2023-02-18T18:50:43.061Z,9.10
2023-02-18T18:53:22.649Z,10.10
2023-02-18T18:55:51.735Z,11.30
2023-02-18T18:58:18.533Z,8.20
2023-02-18T19:00:44.999Z,10.30
2023-02-18T19:03:12.921Z,10.30
2023-02-18T19:05:43.816Z,10.70
2023-02-18T19:08:15.106Z,9.20
2023-02-18T19:13:17.285Z,10.40
2023-02-18T19:15:44.484Z,10.70
2023-02-18T19:18:19.715Z,13.20
2023-02-18T19:20:47.018Z,14.40
2023-02-18T19:23:14.519Z,10.60
2023-02-18T19:25:41.560Z,8.90
2023-02-18T19:28:08.757Z,9.90
2023-02-18T19:30:37.228Z,10.50
2023-02-18T19:33:05.702Z,8.30
2023-02-18T19:35:32.976Z,10.50
2023-02-18T19:38:00.412Z,9.70
2023-02-18T19:40:30.444Z,9.60
2023-02-18T19:42:57.376Z,8.00
2023-02-18T19:45:24.754Z,9.30
2023-02-18T19:47:56.296Z,9.90
2023-02-18T19:50:24.153Z,8.40
2023-02-18T19:52:55.509Z,6.80
2023-02-18T19:57:50.750Z,7.90
2023-02-18T20:00:20.466Z,8.70
2023-02-18T20:02:47.144Z,7.90
2023-02-18T20:05:14.637Z,7.10
2023-02-18T20:07:41.901Z,6.60
2023-02-18T20:10:12.496Z,6.10
2023-02-18T20:12:39.098Z,7.30
2023-02-18T20:15:06.335Z,6.30
2023-02-18T20:17:33.316Z,7.30
2023-02-18T20:19:59.960Z,5.50
2023-02-18T20:22:26.591Z,7.60
2023-02-18T20:24:53.135Z,6.40
2023-02-18T20:27:19.931Z,8.40
2023-02-18T20:29:46.464Z,8.10
2023-02-18T20:32:13.092Z,9.70
2023-02-18T20:34:39.661Z,10.20
2023-02-18T20:37:06.121Z,5.90
2023-02-18T20:39:32.773Z,18.00
2023-02-18T20:42:02.888Z,11.10
2023-02-18T20:44:32.209Z,4.80
2023-02-18T20:46:58.728Z,5.60
2023-02-18T20:49:25.183Z,7.40
2023-02-18T20:51:51.722Z,7.40
2023-02-18T20:54:19.541Z,5.80
2023-02-18T20:56:48.974Z,7.40
2023-02-18T20:59:18.180Z,7.20
2023-02-18T21:01:45.988Z,6.60
2023-02-18T21:04:15.442Z,5.10
2023-02-18T21:06:42.219Z,5.50
2023-02-18T21:09:08.759Z,6.10
2023-02-18T21:11:35.398Z,6.20
2023-02-18T21:14:01.940Z,6.00
2023-02-18T21:16:29.691Z,5.20
2023-02-18T21:18:56.184Z,5.40
2023-02-18T21:21:22.823Z,8.40
2023-02-18T21:23:50.143Z,5.00
2023-02-18T21:26:20.588Z,4.70
2023-02-18T21:28:49.894Z,4.20
2023-02-18T21:31:20.032Z,4.40
2023-02-18T21:33:47.230Z,5.50
2023-02-18T21:36:14.728Z,4.40
2023-02-18T21:38:42.072Z,4.80
2023-02-18T21:41:08.993Z,8.20
2023-02-18T21:43:35.774Z,7.50
2023-02-18T21:46:24.110Z,10.40
2023-02-18T21:48:51.299Z,7.70
2023-02-18T21:51:18.015Z,5.50
2023-02-18T21:53:44.758Z,4.80
2023-02-18T21:56:12.113Z,5.30
2023-02-18T21:58:38.611Z,5.30
2023-02-18T22:01:05.624Z,5.00
2023-02-18T22:03:32.782Z,5.40
2023-02-18T22:05:59.394Z,5.70
2023-02-18T22:08:25.911Z,8.00
2023-02-18T22:10:52.393Z,14.60
2023-02-18T22:13:18.914Z,21.80
2023-02-18T22:15:45.460Z,15.80
2023-02-18T22:18:11.971Z,9.10
2023-02-18T22:20:38.788Z,5.80
2023-02-18T22:23:05.337Z,6.90
2023-02-18T22:25:31.777Z,5.60
2023-02-18T22:27:58.192Z,6.00
2023-02-18T22:30:24.916Z,6.80
2023-02-18T22:32:51.429Z,4.30
2023-02-18T22:35:17.976Z,3.20
2023-02-18T22:37:44.448Z,3.60
2023-02-18T22:40:11.049Z,4.40
2023-02-18T22:42:37.682Z,5.20
2023-02-18T22:45:04.745Z,5.10
2023-02-18T22:47:31.382Z,3.90
2023-02-18T22:49:58.036Z,4.50
2023-02-18T22:52:24.663Z,3.00
2023-02-18T22:54:51.418Z,3.30
2023-02-18T22:57:18.837Z,2.90
2023-02-18T22:59:45.308Z,2.20
2023-02-18T23:02:12.281Z,4.30
2023-02-18T23:04:39.833Z,2.10
2023-02-18T23:07:06.481Z,3.00
2023-02-18T23:09:33.266Z,3.60
2023-02-18T23:11:59.762Z,2.80
2023-02-18T23:14:27.405Z,3.00
2023-02-18T23:16:56.724Z,3.00
2023-02-18T23:19:24.916Z,4.20
2023-02-18T23:21:51.588Z,3.70
2023-02-18T23:24:18.264Z,3.60
2023-02-18T23:26:44.728Z,3.40
2023-02-18T23:29:11.536Z,3.30
2023-02-18T23:31:38.527Z,3.50
2023-02-18T23:34:07.226Z,5.80
2023-02-18T23:36:35.738Z,5.30
2023-02-18T23:39:06.131Z,3.50
2023-02-18T23:41:32.564Z,3.10
2023-02-18T23:43:59.115Z,3.50
2023-02-18T23:46:26.993Z,2.10
2023-02-18T23:48:53.920Z,3.50
2023-02-18T23:51:23.085Z,3.50
2023-02-18T23:53:50.202Z,3.40
2023-02-18T23:56:22.579Z,2.60
2023-02-18T23:58:54.721Z,3.70
